Time;durP1;ratioP1;P1;durP2;ratioP2;P2;SDS_P1;SDS_P2;PMS_P1;PMS_P2;Temp;Humidity;BMP_temperature;BMP_pressure;BME280_temperature;BME280_humidity;BME280_pressure;Samples;Min_cycle;Max_cycle;Signal;HPM_P1;HPM_P2
2022/08/29 00:00:37;;;;;;;24.00;15.65;;;;;;;18.01;97.44;94995.72;5077030;28;20068;-68
2022/08/29 00:03:05;;;;;;;26.92;14.82;;;;;;;18.03;97.51;94993.59;5078430;28;20063;-67
2022/08/29 00:05:36;;;;;;;23.88;14.13;;;;;;;18.03;97.73;94988.31;5060361;28;20070;-66
2022/08/29 00:08:05;;;;;;;29.20;13.43;;;;;;;17.97;98.06;94989.41;5078858;28;20104;-66
2022/08/29 00:10:35;;;;;;;20.80;13.15;;;;;;;17.93;99.14;94996.28;5074942;28;20620;-67
2022/08/29 00:13:05;;;;;;;19.30;13.00;;;;;;;17.90;100.00;94988.94;5078196;28;20060;-66
2022/08/29 00:15:32;;;;;;;24.95;13.75;;;;;;;17.94;100.00;94984.69;5076315;28;20131;-67
2022/08/29 00:18:11;;;;;;;27.33;12.57;;;;;;;17.98;100.00;94988.34;5077770;28;20471;-69
2022/08/29 00:20:39;;;;;;;20.52;12.68;;;;;;;18.04;99.81;94989.09;5074511;28;20040;-67
2022/08/29 00:23:06;;;;;;;24.50;14.55;;;;;;;18.07;99.56;94996.47;5066378;28;20048;-67
2022/08/29 00:25:33;;;;;;;20.95;14.52;;;;;;;18.13;99.18;94988.25;5075968;28;20043;-67
2022/08/29 00:28:01;;;;;;;27.52;16.20;;;;;;;18.13;98.85;94988.25;5048984;28;20501;-67
2022/08/29 00:30:28;;;;;;;24.02;16.65;;;;;;;18.08;99.17;94996.19;5076818;28;20696;-67
2022/08/29 00:32:55;;;;;;;21.35;15.88;;;;;;;17.99;99.81;94986.50;5076738;28;20048;-67
2022/08/29 00:35:29;;;;;;;28.17;15.98;;;;;;;17.94;100.00;94989.97;5078045;28;20040;-67
2022/08/29 00:37:57;;;;;;;25.60;15.75;;;;;;;17.94;100.00;94984.69;5077078;28;20179;-67
2022/08/29 00:40:28;;;;;;;30.20;16.77;;;;;;;17.91;100.00;94977.31;5074340;28;20036;-67
2022/08/29 00:42:56;;;;;;;22.98;14.73;;;;;;;17.95;100.00;94980.97;5072030;28;20129;-68
2022/08/29 00:45:23;;;;;;;26.85;13.98;;;;;;;17.94;99.78;94989.97;5076644;28;20051;-68
2022/08/29 00:48:10;;;;;;;16.23;12.52;;;;;;;17.84;100.00;94988.13;5074629;28;20729;-68
2022/08/29 00:50:58;;;;;;;16.63;11.82;;;;;;;17.67;100.00;94979.81;5079925;28;20095;-68
2022/08/29 00:53:33;;;;;;;26.27;11.50;;;;;;;17.48;100.00;94987.53;5073964;28;20071;-67
2022/08/29 00:56:02;;;;;;;18.23;11.82;;;;;;;17.39;100.00;94980.19;5079662;28;20044;-67
2022/08/29 00:58:40;;;;;;;16.33;9.38;;;;;;;17.33;100.00;94986.53;5076263;28;20724;-67
2022/08/29 01:01:07;;;;;;;12.90;10.35;;;;;;;17.25;100.00;94989.72;5077372;28;20135;-68
2022/08/29 01:03:36;;;;;;;17.90;10.30;;;;;;;17.24;100.00;94982.88;5076511;28;20048;-68
2022/08/29 01:06:10;;;;;;;19.00;10.38;;;;;;;17.21;100.00;94988.69;5079714;28;20101;-67
2022/08/29 01:08:37;;;;;;;19.98;10.80;;;;;;;17.20;100.00;94992.38;5077927;28;20048;-67
2022/08/29 01:13:53;;;;;;;16.05;11.18;;;;;;;17.15;100.00;94984.50;5075711;28;20043;-67
2022/08/29 01:16:21;;;;;;;19.90;11.95;;;;;;;17.15;100.00;94989.75;5077786;28;20054;-67
2022/08/29 01:18:52;;;;;;;17.55;10.30;;;;;;;17.07;100.00;94982.41;5076943;28;20055;-67
2022/08/29 01:21:39;;;;;;;22.25;10.93;;;;;;;17.03;100.00;94984.00;5075048;28;20444;-68
2022/08/29 01:24:42;;;;;;;18.77;11.20;;;;;;;17.00;100.00;94978.22;5054498;28;20052;-67
2022/08/29 01:27:11;;;;;;;21.60;10.68;;;;;;;16.95;100.00;94985.34;5080647;28;20044;-68
2022/08/29 01:29:38;;;;;;;20.02;10.05;;;;;;;16.89;100.00;94974.03;5071822;28;20832;-67
2022/08/29 01:32:05;;;;;;;16.63;9.95;;;;;;;16.83;100.00;94977.72;5076347;28;20055;-67
2022/08/29 01:34:32;;;;;;;20.25;10.43;;;;;;;16.82;100.00;94991.91;5072606;28;20036;-67
2022/08/29 01:37:02;;;;;;;18.00;10.90;;;;;;;16.82;100.00;94981.41;5073861;28;20051;-67
2022/08/29 01:39:32;;;;;;;23.35;10.98;;;;;;;16.86;100.00;94977.19;5074158;28;20070;-67
2022/08/29 01:42:02;;;;;;;15.88;10.60;;;;;;;16.90;100.00;94980.88;5073809;28;20051;-67
2022/08/29 01:44:29;;;;;;;16.88;10.55;;;;;;;16.92;100.00;94965.59;5077706;28;20757;-67
2022/08/29 01:46:59;;;;;;;20.95;10.75;;;;;;;16.95;100.00;94965.06;5075739;28;20048;-67
2022/08/29 01:49:31;;;;;;;15.52;9.95;;;;;;;17.09;100.00;94975.06;5071446;28;20029;-67
2022/08/29 01:51:59;;;;;;;14.38;9.95;;;;;;;17.02;100.00;94966.66;5075748;28;20044;-67
2022/08/29 01:54:29;;;;;;;24.40;10.52;;;;;;;17.12;100.00;94975.28;5075692;28;20127;-67
2022/08/29 01:56:56;;;;;;;16.67;10.55;;;;;;;17.14;100.00;94977.66;5073229;28;20048;-67
2022/08/29 01:59:26;;;;;;;17.05;11.02;;;;;;;17.12;100.00;94975.28;5075438;28;20106;-68
2022/08/29 02:02:07;;;;;;;16.33;10.60;;;;;;;17.03;100.00;94973.47;5071220;28;20048;-67
2022/08/29 02:04:35;;;;;;;25.98;11.02;;;;;;;16.99;100.00;94971.38;5077145;28;20048;-67
2022/08/29 02:07:02;;;;;;;21.17;11.10;;;;;;;16.96;100.00;94973.75;5071390;28;20345;-67
2022/08/29 02:09:29;;;;;;;19.33;11.40;;;;;;;16.93;100.00;94982.97;5071884;28;20041;-67
2022/08/29 02:11:57;;;;;;;20.70;11.02;;;;;;;16.83;100.00;94983.00;5074558;28;20052;-68
2022/08/29 02:14:24;;;;;;;23.42;11.75;;;;;;;16.78;100.00;94985.59;5076434;28;20044;-67
2022/08/29 02:16:50;;;;;;;17.85;11.23;;;;;;;16.74;100.00;94989.81;5041025;28;20469;-67
2022/08/29 02:19:18;;;;;;;17.17;11.05;;;;;;;16.68;100.00;94969.84;5073512;28;20028;-67
2022/08/29 02:21:45;;;;;;;17.45;10.98;;;;;;;16.80;100.00;94994.03;5078817;28;20048;-68
2022/08/29 02:24:13;;;;;;;26.67;13.25;;;;;;;16.84;100.00;94987.22;5073687;28;20680;-67
2022/08/29 02:26:53;;;;;;;22.17;13.25;;;;;;;16.73;100.00;94994.28;5079227;28;20043;-67
2022/08/29 02:29:20;;;;;;;19.42;12.95;;;;;;;16.62;100.00;94995.38;5073675;28;20040;-68
2022/08/29 02:31:47;;;;;;;21.58;12.18;;;;;;;16.63;100.00;94994.31;5075562;28;20499;-68
2022/08/29 02:34:14;;;;;;;20.90;12.65;;;;;;;16.51;100.00;94986.69;5057678;28;20791;-68
2022/08/29 02:36:41;;;;;;;16.38;12.00;;;;;;;16.61;100.00;94996.41;5075952;28;20492;-67
2022/08/29 02:39:10;;;;;;;14.35;11.88;;;;;;;16.62;100.00;94998.78;5058420;28;20044;-67
2022/08/29 02:41:37;;;;;;;16.92;10.93;;;;;;;16.60;100.00;94995.63;5076498;28;20471;-68
2022/08/29 02:44:04;;;;;;;26.50;11.98;;;;;;;16.57;100.00;95001.41;5074050;28;20048;-67
2022/08/29 02:46:31;;;;;;;19.13;11.27;;;;;;;16.55;100.00;94998.25;5077934;28;20044;-67
2022/08/29 02:48:58;;;;;;;25.23;12.98;;;;;;;16.57;100.00;95001.41;5074059;28;20044;-67
2022/08/29 02:51:29;;;;;;;16.55;11.98;;;;;;;16.45;100.00;94993.00;5074082;28;20047;-68
2022/08/29 02:53:57;;;;;;;18.60;11.95;;;;;;;16.46;100.00;95005.09;5078261;28;20044;-67
2022/08/29 02:56:25;;;;;;;23.70;13.55;;;;;;;16.46;100.00;94993.78;5073555;28;20044;-67
2022/08/29 02:58:51;;;;;;;22.75;13.60;;;;;;;16.48;100.00;95000.38;5076221;28;20040;-68
2022/08/29 03:01:20;;;;;;;29.45;14.07;;;;;;;16.49;100.00;95003.78;5074710;28;20079;-67
2022/08/29 03:03:49;;;;;;;35.90;15.75;;;;;;;16.47;100.00;95006.66;5073298;28;20043;-67
2022/08/29 03:06:17;;;;;;;36.40;15.48;;;;;;;16.40;100.00;95006.13;5055608;28;20786;-68
2022/08/29 03:08:44;;;;;;;36.85;15.30;;;;;;;16.36;100.00;95010.34;5073606;28;20701;-68
2022/08/29 03:11:12;;;;;;;28.63;13.40;;;;;;;16.29;100.00;95015.84;5075928;28;20835;-67
2022/08/29 03:13:39;;;;;;;29.00;15.05;;;;;;;16.24;100.00;95016.66;5081198;28;20036;-68
2022/08/29 03:16:07;;;;;;;25.48;12.70;;;;;;;16.24;100.00;95018.47;5067671;28;20468;-67
2022/08/29 03:18:36;;;;;;;24.58;13.80;;;;;;;16.19;100.00;95021.91;5080809;28;20462;-67
2022/08/29 03:21:03;;;;;;;20.00;13.15;;;;;;;16.17;100.00;95034.50;5081403;28;20036;-67
2022/08/29 03:23:30;;;;;;;26.25;12.35;;;;;;;16.16;100.00;95022.41;5077269;28;20039;-67
2022/08/29 03:25:57;;;;;;;25.85;12.27;;;;;;;16.16;100.00;95022.41;5063607;28;20039;-67
2022/08/29 03:28:24;;;;;;;20.63;11.30;;;;;;;16.18;100.00;95030.81;5076433;28;20040;-67
2022/08/29 03:30:51;;;;;;;16.33;11.63;;;;;;;16.15;100.00;95012.16;5082443;28;20052;-67
2022/08/29 03:33:18;;;;;;;17.90;11.43;;;;;;;16.19;100.00;95029.78;5060945;28;20052;-68
2022/08/29 03:35:44;;;;;;;21.98;10.88;;;;;;;16.21;100.00;95032.16;5082566;28;20066;-67
2022/08/29 03:38:11;;;;;;;20.02;11.93;;;;;;;16.16;100.00;95032.91;5078326;28;20043;-67
2022/08/29 03:40:41;;;;;;;20.60;12.35;;;;;;;16.14;100.00;95029.78;5055537;28;20116;-68
2022/08/29 03:43:08;;;;;;;25.40;15.07;;;;;;;16.18;100.00;95033.44;5078239;28;20127;-68
2022/08/29 03:45:35;;;;;;;25.88;14.57;;;;;;;16.14;100.00;95036.88;5062883;28;20047;-67
2022/08/29 03:48:03;;;;;;;28.48;15.73;;;;;;;16.17;100.00;95038.97;5077325;28;21457;-67
2022/08/29 03:50:30;;;;;;;31.98;16.38;;;;;;;16.24;100.00;95040.31;5081275;28;20085;-67
2022/08/29 03:52:57;;;;;;;43.08;17.30;;;;;;;16.30;100.00;95042.94;5078024;28;20051;-67
2022/08/29 03:55:24;;;;;;;41.00;17.90;;;;;;;16.33;100.00;95042.41;5080242;28;20126;-67
2022/08/29 03:57:53;;;;;;;43.13;18.88;;;;;;;16.41;100.00;95044.53;5080624;28;20306;-67
2022/08/29 04:00:20;;;;;;;42.70;17.23;;;;;;;16.45;100.00;95042.94;5078918;28;20040;-67
2022/08/29 04:02:47;;;;;;;46.10;15.90;;;;;;;16.52;100.00;95051.34;5080554;28;20314;-68
2022/08/29 04:05:16;;;;;;;27.77;16.02;;;;;;;16.55;100.00;95056.09;5078744;28;20047;-67
2022/08/29 04:07:46;;;;;;;42.85;14.98;;;;;;;16.54;100.00;95059.00;5082312;28;20043;-67
2022/08/29 04:10:19;;;;;;;35.78;14.93;;;;;;;16.50;100.00;95053.47;5079000;28;20078;-67
2022/08/29 04:12:45;;;;;;;24.98;14.30;;;;;;;16.47;100.00;95053.97;5080711;28;20185;-67
2022/08/29 04:15:20;;;;;;;37.45;15.30;;;;;;;16.49;100.00;95051.88;5077218;28;20044;-67
2022/08/29 04:17:49;;;;;;;31.02;15.20;;;;;;;16.44;100.00;95055.31;5079868;28;20048;-67
2022/08/29 04:20:20;;;;;;;30.92;14.38;;;;;;;16.42;100.00;95059.22;5078175;28;20115;-67
2022/08/29 04:22:52;;;;;;;34.88;14.60;;;;;;;16.38;100.00;95050.28;5081037;28;20044;-67
2022/08/29 04:25:23;;;;;;;37.70;15.23;;;;;;;16.30;100.00;95038.47;5079077;28;20043;-67
2022/08/29 04:27:50;;;;;;;32.35;15.23;;;;;;;16.30;100.00;95053.47;5079325;28;20056;-67
2022/08/29 04:30:20;;;;;;;34.80;14.80;;;;;;;16.37;100.00;95048.72;5078240;28;20733;-67
2022/08/29 04:32:47;;;;;;;45.42;16.35;;;;;;;16.43;100.00;95058.97;5076537;28;20044;-67
2022/08/29 04:35:15;;;;;;;27.88;14.18;;;;;;;16.54;100.00;95054.50;5060554;28;20058;-69
2022/08/29 04:37:43;;;;;;;26.35;16.02;;;;;;;16.60;100.00;95058.72;5077115;28;20040;-68
2022/08/29 04:40:14;;;;;;;37.13;15.70;;;;;;;16.68;100.00;95064.53;5077966;28;20686;-66
2022/08/29 04:42:41;;;;;;;39.75;16.92;;;;;;;16.70;100.00;95063.19;5076703;28;20139;-66
2022/08/29 04:45:12;;;;;;;46.20;16.42;;;;;;;16.69;100.00;95071.34;5078899;28;20048;-66
2022/08/29 04:47:40;;;;;;;37.70;17.52;;;;;;;16.81;100.00;95077.13;5075850;28;20044;-68
2022/08/29 04:50:11;;;;;;;37.28;15.02;;;;;;;16.88;100.00;95080.31;5078377;28;20051;-66
2022/08/29 04:52:38;;;;;;;39.28;15.95;;;;;;;16.94;100.00;95079.28;5077907;28;20090;-66
2022/08/29 04:55:07;;;;;;;42.05;15.90;;;;;;;17.05;100.00;95085.31;5078330;28;20041;-66
2022/08/29 04:57:37;;;;;;;25.95;14.30;;;;;;;17.12;100.00;95079.75;5059048;28;20618;-66
2022/08/29 05:00:06;;;;;;;30.38;14.45;;;;;;;17.15;100.00;95079.22;5078436;28;20032;-66
2022/08/29 05:02:33;;;;;;;44.08;14.98;;;;;;;17.26;100.00;95087.91;5060118;28;20036;-68
2022/08/29 05:05:01;;;;;;;30.65;16.60;;;;;;;17.34;100.00;95087.34;5075823;28;20040;-66
2022/08/29 05:07:28;;;;;;;28.73;14.57;;;;;;;17.42;100.00;95088.66;5076826;28;20059;-66
2022/08/29 05:09:58;;;;;;;31.13;15.98;;;;;;;17.48;100.00;95087.59;5076790;28;20113;-66
2022/08/29 05:15:53;;;;;;;35.00;14.88;;;;;;;17.69;100.00;95099.63;5090667;27;20127;-67
2022/08/29 05:18:20;;;;;;;32.30;14.98;;;;;;;17.82;100.00;95102.75;5094681;28;20072;-67
2022/08/29 05:20:47;;;;;;;31.08;14.63;;;;;;;17.94;100.00;95105.91;5093507;28;20039;-68
2022/08/29 05:23:16;;;;;;;19.42;12.15;;;;;;;18.07;100.00;95105.28;5095305;28;20074;-67
2022/08/29 05:25:44;;;;;;;29.58;13.50;;;;;;;18.37;100.00;95108.06;5077920;28;20040;-68
2022/08/29 05:28:12;;;;;;;22.05;11.55;;;;;;;18.56;100.00;95105.56;5097297;28;20051;-69
2022/08/29 05:30:40;;;;;;;26.75;12.70;;;;;;;18.80;100.00;95106.44;5099036;28;20028;-67
2022/08/29 05:33:07;;;;;;;27.73;11.55;;;;;;;19.07;100.00;95105.19;5094527;28;20044;-68
2022/08/29 05:35:34;;;;;;;15.80;11.23;;;;;;;19.33;100.00;95108.38;5083359;28;20031;-68
2022/08/29 05:38:01;;;;;;;17.50;10.55;;;;;;;19.55;100.00;95105.25;5087186;28;20083;-67
2022/08/29 05:40:35;;;;;;;24.58;11.18;;;;;;;19.80;100.00;95106.84;5081313;28;20063;-67
2022/08/29 05:43:02;;;;;;;22.50;9.65;;;;;;;19.90;100.00;95100.66;5094180;28;20092;-68
2022/08/29 05:45:29;;;;;;;14.98;8.95;;;;;;;20.23;98.56;95124.56;5094405;28;20039;-68
2022/08/29 05:47:56;;;;;;;18.45;9.50;;;;;;;20.48;95.98;95125.31;5077085;28;20044;-69
2022/08/29 05:50:23;;;;;;;17.52;9.80;;;;;;;20.61;92.33;95108.72;5079856;28;20114;-68
2022/08/29 05:52:50;;;;;;;23.08;10.20;;;;;;;20.87;92.08;95121.56;5092164;28;20031;-68
2022/08/29 05:55:17;;;;;;;18.90;9.57;;;;;;;21.03;89.20;95124.78;5080550;28;20043;-68
2022/08/29 05:57:44;;;;;;;17.90;9.73;;;;;;;21.13;88.75;95125.38;5085580;28;20594;-67
2022/08/29 06:00:13;;;;;;;18.40;9.25;;;;;;;21.24;88.30;95114.63;5080159;28;20042;-68
2022/08/29 06:02:39;;;;;;;13.93;10.77;;;;;;;21.37;88.64;95124.47;5100090;28;20039;-68
2022/08/29 06:05:07;;;;;;;18.30;11.13;;;;;;;21.42;88.51;95121.72;5103078;28;20039;-68
2022/08/29 06:07:36;;;;;;;15.70;11.55;;;;;;;21.46;88.63;95122.72;5103514;28;20727;-68
2022/08/29 06:10:05;;;;;;;16.10;11.00;;;;;;;21.44;88.90;95114.25;5104601;28;20066;-68
2022/08/29 06:12:33;;;;;;;18.08;11.30;;;;;;;21.65;87.59;95119.22;5100895;28;20039;-68
2022/08/29 06:15:00;;;;;;;21.85;11.65;;;;;;;21.72;87.75;95116.97;5099990;28;20046;-68
2022/08/29 06:17:27;;;;;;;37.88;11.98;;;;;;;21.85;88.23;95124.13;5080077;28;21261;-67
2022/08/29 06:19:54;;;;;;;22.60;12.52;;;;;;;21.89;87.96;95127.75;5083082;28;20032;-68
2022/08/29 06:22:21;;;;;;;24.88;11.95;;;;;;;21.84;88.60;95117.28;5104866;28;20055;-68
2022/08/29 06:24:52;;;;;;;23.45;13.40;;;;;;;21.99;88.73;95128.66;5080877;28;20069;-68
2022/08/29 06:27:19;;;;;;;23.90;11.93;;;;;;;21.84;89.28;95127.88;5065326;28;20689;-68
2022/08/29 06:29:46;;;;;;;29.13;14.68;;;;;;;21.93;89.72;95131.41;5081162;28;20051;-68
2022/08/29 06:32:13;;;;;;;46.42;16.33;;;;;;;21.91;88.37;95128.28;5083288;28;20047;-68
2022/08/29 06:34:39;;;;;;;37.50;14.60;;;;;;;21.95;88.27;95139.84;5063865;28;20032;-68
2022/08/29 06:37:06;;;;;;;44.20;15.05;;;;;;;21.89;89.53;95127.75;5065727;28;20040;-67
2022/08/29 06:39:33;;;;;;;24.10;15.18;;;;;;;22.02;88.00;95141.31;5080895;28;20056;-68
2022/08/29 06:42:01;;;;;;;28.55;14.18;;;;;;;22.12;88.19;95138.47;5083532;28;20420;-67
2022/08/29 06:44:30;;;;;;;27.20;13.75;;;;;;;22.24;86.61;95140.63;5064939;28;20159;-68
2022/08/29 06:46:57;;;;;;;22.70;13.60;;;;;;;22.31;86.64;95133.06;5084798;28;20047;-68
2022/08/29 06:49:26;;;;;;;22.48;13.52;;;;;;;22.29;84.76;95138.69;5086895;28;20032;-68
2022/08/29 06:51:53;;;;;;;15.70;11.65;;;;;;;22.35;85.44;95133.28;5070497;28;20060;-69
2022/08/29 06:54:26;;;;;;;20.88;12.85;;;;;;;22.51;85.20;95140.59;5091079;28;20060;-69
2022/08/29 06:56:54;;;;;;;20.00;12.25;;;;;;;22.69;84.27;95136.22;5088991;28;20118;-67
2022/08/29 06:59:21;;;;;;;17.48;11.85;;;;;;;22.72;84.33;95137.47;5091268;28;20051;-66
2022/08/29 07:01:48;;;;;;;19.10;11.88;;;;;;;22.81;83.85;95142.84;5087812;28;20035;-66
2022/08/29 07:04:15;;;;;;;30.77;13.52;;;;;;;22.82;83.48;95139.13;5069464;28;20244;-66
2022/08/29 07:06:47;;;;;;;16.27;11.77;;;;;;;22.84;83.35;95131.63;5081244;28;20143;-65
2022/08/29 07:09:14;;;;;;;21.05;12.52;;;;;;;22.63;82.80;95152.53;5084982;28;20070;-65
2022/08/29 07:11:41;;;;;;;17.92;12.68;;;;;;;22.90;82.03;95149.00;5082416;28;20051;-65
2022/08/29 07:14:10;;;;;;;18.42;11.48;;;;;;;23.07;80.90;95151.81;5082505;28;20052;-66
2022/08/29 07:16:38;;;;;;;27.85;12.02;;;;;;;23.29;79.06;95152.91;5079597;28;20055;-67
2022/08/29 07:19:07;;;;;;;17.35;11.23;;;;;;;23.33;79.45;95159.16;5085304;28;20066;-66
2022/08/29 07:21:34;;;;;;;14.50;10.75;;;;;;;23.47;79.23;95159.09;5081285;28;20644;-65
2022/08/29 07:24:02;;;;;;;18.25;12.20;;;;;;;23.62;77.71;95149.94;5063694;28;20051;-66
2022/08/29 07:26:32;;;;;;;20.00;10.65;;;;;;;23.57;77.47;95158.84;5085017;28;20421;-66
2022/08/29 07:29:02;;;;;;;17.17;10.73;;;;;;;23.76;76.62;95155.94;5082628;28;20039;-65
2022/08/29 07:31:29;;;;;;;18.45;11.65;;;;;;;23.82;75.14;95138.00;5066904;28;20047;-66
2022/08/29 07:33:57;;;;;;;18.65;11.43;;;;;;;23.98;76.33;95151.69;5081488;28;20136;-66
2022/08/29 07:36:30;;;;;;;20.83;11.48;;;;;;;24.06;76.91;95158.91;5066270;28;20036;-67
2022/08/29 07:38:57;;;;;;;14.75;10.55;;;;;;;24.29;75.92;95156.13;5078586;28;20069;-67
2022/08/29 07:41:24;;;;;;;20.30;11.65;;;;;;;24.32;74.57;95150.97;5081833;28;20054;-68
2022/08/29 07:43:51;;;;;;;20.52;10.95;;;;;;;24.75;74.77;95162.81;5064045;28;20433;-66
2022/08/29 07:46:19;;;;;;;21.70;11.27;;;;;;;24.95;72.37;95146.19;5082198;28;20479;-68
2022/08/29 07:48:47;;;;;;;22.20;11.93;;;;;;;25.17;71.04;95152.44;5080908;28;20292;-66
2022/08/29 07:51:16;;;;;;;22.10;11.82;;;;;;;25.35;70.74;95154.03;5081760;28;20040;-68
2022/08/29 07:53:44;;;;;;;24.13;10.70;;;;;;;25.46;70.04;95149.13;5079059;28;20067;-68
2022/08/29 07:56:24;;;;;;;15.05;10.00;;;;;;;25.43;68.22;95154.31;5080413;28;20040;-67
2022/08/29 07:58:52;;;;;;;22.73;10.40;;;;;;;25.51;69.56;95156.16;5062966;28;20528;-68
2022/08/29 08:01:19;;;;;;;15.38;9.60;;;;;;;25.57;67.62;95154.91;5060906;28;20040;-67
2022/08/29 08:03:49;;;;;;;16.75;9.05;;;;;;;25.56;66.36;95158.66;5081328;28;20039;-66
2022/08/29 08:06:19;;;;;;;17.17;10.35;;;;;;;25.30;67.13;95159.53;5066501;28;20040;-67
2022/08/29 08:08:47;;;;;;;12.82;9.85;;;;;;;25.25;68.79;95159.69;5048815;28;20469;-66
2022/08/29 08:11:14;;;;;;;18.40;10.50;;;;;;;25.15;69.15;95151.97;5079911;28;20051;-67
2022/08/29 08:13:41;;;;;;;21.00;10.15;;;;;;;25.12;68.73;95155.25;5064736;28;21093;-67
2022/08/29 08:16:12;;;;;;;15.65;9.25;;;;;;;25.19;69.68;95160.91;5072751;28;20770;-68
2022/08/29 08:18:41;;;;;;;18.55;10.40;;;;;;;25.29;67.72;95152.59;5075454;28;20043;-67
2022/08/29 08:21:08;;;;;;;23.45;11.02;;;;;;;25.45;69.23;95152.13;5079583;28;20058;-67
2022/08/29 08:23:36;;;;;;;15.48;9.77;;;;;;;25.72;67.65;95151.72;5071281;28;20047;-67
2022/08/29 08:26:03;;;;;;;13.65;8.77;;;;;;;25.90;67.96;95156.97;5076442;28;20429;-67
2022/08/29 08:28:30;;;;;;;21.02;9.98;;;;;;;26.08;66.57;95153.16;5082115;28;20040;-66
2022/08/29 08:30:58;;;;;;;12.77;9.52;;;;;;;26.09;66.37;95153.91;5085597;28;20051;-67
2022/08/29 08:33:32;;;;;;;15.45;9.23;;;;;;;26.24;65.04;95152.59;5081598;28;20044;-66
2022/08/29 08:36:01;;;;;;;18.58;11.48;;;;;;;26.26;65.23;95153.84;5083196;28;20032;-68
2022/08/29 08:38:29;;;;;;;21.45;10.90;;;;;;;26.19;65.80;95150.13;5074692;28;20042;-67
2022/08/29 08:41:18;;;;;;;25.08;9.73;;;;;;;26.49;67.02;95150.88;5081992;28;20043;-66
2022/08/29 08:43:59;;;;;;;13.55;9.13;;;;;;;26.62;64.88;95157.09;5079253;28;20702;-68
2022/08/29 08:46:38;;;;;;;18.90;11.23;;;;;;;26.93;63.29;95150.59;5079146;28;20032;-68
2022/08/29 08:49:15;;;;;;;21.02;10.07;;;;;;;26.95;62.75;95140.34;5064654;28;20050;-67
2022/08/29 08:51:51;;;;;;;18.50;11.27;;;;;;;26.97;61.37;95148.81;5085558;28;20040;-67
2022/08/29 08:54:23;;;;;;;20.83;10.40;;;;;;;27.00;60.50;95140.91;5063362;28;20051;-67
2022/08/29 08:56:55;;;;;;;13.27;9.93;;;;;;;27.16;60.00;95119.69;5065947;28;20844;-67
2022/08/29 08:59:34;;;;;;;13.70;9.18;;;;;;;27.39;56.89;95143.44;5082557;28;20067;-68
2022/08/29 09:02:26;;;;;;;17.65;9.50;;;;;;;27.47;58.41;95139.88;5078942;28;20040;-67
2022/08/29 09:05:13;;;;;;;21.05;9.65;;;;;;;27.55;56.87;95136.31;5079151;28;20044;-67
2022/08/29 09:07:49;;;;;;;17.30;9.60;;;;;;;27.66;56.73;95131.31;5079687;28;20048;-68
2022/08/29 09:10:30;;;;;;;16.35;10.35;;;;;;;27.79;54.89;95129.44;5063448;28;20032;-67
2022/08/29 09:12:57;;;;;;;24.52;10.38;;;;;;;27.98;56.63;95132.38;5058633;28;20143;-67
2022/08/29 09:15:33;;;;;;;17.75;10.65;;;;;;;28.14;55.23;95129.00;5079903;28;20040;-67
2022/08/29 09:18:03;;;;;;;28.67;9.75;;;;;;;28.40;53.93;95137.47;5080440;28;20043;-67
2022/08/29 09:20:35;;;;;;;25.58;9.65;;;;;;;28.60;51.95;95135.00;5084585;28;20041;-68
2022/08/29 09:23:09;;;;;;;20.50;10.10;;;;;;;28.76;51.68;95121.66;5084740;28;20071;-67
2022/08/29 09:25:36;;;;;;;17.65;10.25;;;;;;;29.10;50.51;95124.88;5065264;28;20828;-67
2022/08/29 09:28:06;;;;;;;17.15;8.70;;;;;;;28.95;50.05;95123.72;5088671;28;21015;-69
2022/08/29 09:30:35;;;;;;;25.52;8.75;;;;;;;28.99;48.63;95129.94;5066204;28;20052;-68
2022/08/29 09:33:14;;;;;;;17.13;9.27;;;;;;;28.93;48.75;95121.38;5085620;28;20050;-67
2022/08/29 09:35:47;;;;;;;19.35;8.98;;;;;;;29.12;48.55;95096.59;5065925;28;20159;-68
2022/08/29 09:38:17;;;;;;;18.55;8.55;;;;;;;29.13;48.99;95108.09;5087943;28;20467;-67
2022/08/29 09:40:46;;;;;;;10.68;7.80;;;;;;;29.50;48.03;95121.34;5067054;28;20139;-67
2022/08/29 09:43:20;;;;;;;16.20;8.95;;;;;;;29.67;47.44;95112.16;5091010;28;20035;-66
2022/08/29 09:46:06;;;;;;;19.60;8.32;;;;;;;29.61;47.17;95110.88;5085947;28;20065;-67
2022/08/29 09:48:36;;;;;;;9.23;6.97;;;;;;;29.36;46.73;95111.03;5088161;28;20040;-67
2022/08/29 09:51:39;;;;;;;13.50;7.45;;;;;;;29.24;47.01;95103.81;5085196;28;20105;-67
2022/08/29 09:54:25;;;;;;;13.57;7.63;;;;;;;29.59;46.18;95102.41;5091331;28;20054;-67
2022/08/29 09:57:10;;;;;;;20.23;7.68;;;;;;;29.92;44.70;95094.78;5084705;28;20140;-67
2022/08/29 09:59:41;;;;;;;15.95;8.00;;;;;;;30.03;43.77;95094.25;5081164;28;20760;-67
2022/08/29 10:02:18;;;;;;;;;;;;;;;30.30;42.67;95098.66;5065023;28;21418;-66
2022/08/29 10:04:54;;;;;;;12.85;7.03;;;;;;;30.57;41.80;95090.81;5072188;28;19973;-67
2022/08/29 10:07:31;;;;;;;18.17;7.68;;;;;;;30.76;40.42;95087.38;5082913;28;20044;-67
2022/08/29 10:10:05;;;;;;;18.90;8.43;;;;;;;31.09;40.58;95093.38;5084212;28;20414;-66
2022/08/29 10:12:37;;;;;;;10.65;6.25;;;;;;;31.42;39.49;95080.16;5082678;28;20040;-68
2022/08/29 10:15:11;;;;;;;12.25;6.32;;;;;;;31.64;38.36;95075.16;5081372;28;20524;-67
2022/08/29 10:18:20;;;;;;;;;;;;;;;31.80;36.70;95073.09;5081378;28;20059;-68
2022/08/29 10:20:55;;;;;;;18.40;5.95;;;;;;;32.26;35.57;95076.84;5082044;28;19930;-66
2022/08/29 10:23:48;;;;;;;13.50;6.10;;;;;;;32.85;34.45;95074.50;5083069;28;20040;-66
2022/08/29 10:26:18;;;;;;;12.90;5.63;;;;;;;32.99;32.99;95068.47;5070855;28;20047;-67
2022/08/29 10:28:58;;;;;;;12.77;5.65;;;;;;;33.41;32.61;95064.66;5081504;28;20055;-67
2022/08/29 10:31:31;;;;;;;14.07;6.28;;;;;;;33.33;33.54;95058.41;5083495;28;20048;-66
2022/08/29 10:34:16;;;;;;;16.40;5.97;;;;;;;33.19;32.87;95050.19;5080891;28;20049;-67
2022/08/29 10:36:54;;;;;;;19.20;6.30;;;;;;;33.68;31.55;95060.66;5079685;28;20056;-68
2022/08/29 10:39:32;;;;;;;17.83;5.18;;;;;;;34.32;30.60;95059.53;5068579;28;20052;-66
2022/08/29 10:42:04;;;;;;;14.80;4.93;;;;;;;34.90;30.24;95055.19;5084579;28;20048;-67
2022/08/29 10:44:53;;;;;;;7.80;5.28;;;;;;;35.28;29.87;95052.19;5079002;28;20042;-65
2022/08/29 10:47:52;;;;;;;13.20;5.65;;;;;;;35.56;28.02;95049.47;5082090;28;20063;-66
2022/08/29 10:50:30;;;;;;;15.00;4.60;;;;;;;35.41;26.80;95051.41;5061638;28;20690;-65
2022/08/29 10:53:31;;;;;;;18.08;5.53;;;;;;;35.23;27.46;95059.50;5063657;28;20052;-66
2022/08/29 10:56:27;;;;;;;7.47;5.15;;;;;;;34.82;29.40;95062.47;5079690;28;20040;-66
2022/08/29 10:59:17;;;;;;;19.85;6.00;;;;;;;33.97;30.93;95058.16;5078414;28;20044;-66
2022/08/29 11:02:04;;;;;;;17.55;5.55;;;;;;;33.52;31.79;95046.63;5083768;28;20040;-66
2022/08/29 11:04:42;;;;;;;24.38;6.47;;;;;;;32.78;33.16;95053.63;5086339;28;20517;-66
2022/08/29 11:07:18;;;;;;;16.00;6.80;;;;;;;31.85;34.43;95042.38;5077708;28;20032;-66
2022/08/29 11:10:05;;;;;;;18.65;6.18;;;;;;;31.48;35.75;95034.09;5077550;28;20044;-67
2022/08/29 11:12:44;;;;;;;17.60;6.93;;;;;;;31.03;36.26;95026.44;5075697;28;20043;-66
2022/08/29 11:15:17;;;;;;;13.18;8.35;;;;;;;30.27;42.26;95023.38;5082868;28;20808;-66
2022/08/29 11:17:50;;;;;;;15.13;8.53;;;;;;;29.58;44.70;95025.69;5078340;28;20122;-66
2022/08/29 11:20:30;;;;;;;14.27;8.55;;;;;;;29.44;45.31;95021.56;5085489;28;20033;-67
2022/08/29 11:23:34;;;;;;;16.30;7.85;;;;;;;29.39;45.56;95016.47;5079452;28;20044;-66
2022/08/29 11:26:17;;;;;;;15.02;8.05;;;;;;;29.09;46.37;95016.84;5074184;28;20097;-67
2022/08/29 11:28:50;;;;;;;17.20;8.82;;;;;;;28.91;47.86;95037.06;5079394;28;20055;-66
2022/08/29 11:31:31;;;;;;;11.00;8.50;;;;;;;28.63;49.47;95027.16;5080993;28;20098;-67
2022/08/29 11:34:32;;;;;;;12.32;7.60;;;;;;;28.32;50.28;95022.41;5084640;28;20100;-67
2022/08/29 11:37:20;;;;;;;16.15;8.65;;;;;;;28.66;50.11;95034.50;5080194;28;20044;-67
2022/08/29 11:40:11;;;;;;;15.77;9.70;;;;;;;29.07;47.90;95043.22;5066769;28;20044;-66
2022/08/29 11:42:44;;;;;;;18.13;8.70;;;;;;;29.52;47.21;95044.75;5058184;28;20106;-67